createdAt,value
2023-01-28T00:01:19.510Z,68.07
2023-01-28T00:03:51.106Z,68.75
2023-01-28T00:06:20.104Z,69.76
2023-01-28T00:08:48.369Z,69.81
2023-01-28T00:11:16.477Z,69.48
2023-01-28T00:13:44.737Z,69.18
2023-01-28T00:16:13.054Z,69.26
2023-01-28T00:18:42.543Z,69.12
2023-01-28T00:21:13.299Z,69.08
2023-01-28T00:23:44.078Z,69.82
2023-01-28T00:26:16.123Z,69.71
2023-01-28T00:28:46.523Z,69.41
2023-01-28T00:31:17.466Z,69.27
2023-01-28T00:33:48.579Z,68.83
2023-01-28T00:36:18.460Z,68.98
2023-01-28T00:38:51.063Z,69.56
2023-01-28T00:41:22.531Z,69.21
2023-01-28T00:43:53.022Z,69.05
2023-01-28T00:46:22.755Z,68.91
2023-01-28T00:48:52.356Z,69.56
2023-01-28T00:51:21.667Z,70.85
2023-01-28T00:53:50.925Z,70.70
2023-01-28T00:56:20.828Z,70.11
2023-01-28T00:58:48.953Z,70.29
2023-01-28T01:01:18.887Z,70.19
2023-01-28T01:03:47.624Z,70.41
2023-01-28T01:06:17.576Z,69.73
2023-01-28T01:08:50.177Z,69.88
2023-01-28T01:11:19.890Z,70.45
2023-01-28T01:13:52.299Z,71.06
2023-01-28T01:16:20.405Z,70.54
2023-01-28T01:18:50.122Z,71.46
2023-01-28T01:21:22.388Z,71.16
2023-01-28T01:23:50.985Z,71.09
2023-01-28T01:26:19.166Z,70.66
2023-01-28T01:28:48.164Z,70.21
2023-01-28T01:31:18.608Z,70.38
2023-01-28T01:33:48.970Z,70.33
2023-01-28T01:36:20.346Z,70.14
2023-01-28T01:38:48.778Z,69.90
2023-01-28T01:41:26.144Z,70.49
2023-01-28T01:43:55.828Z,71.45
2023-01-28T01:46:31.693Z,71.27
2023-01-28T01:49:07.383Z,70.50
2023-01-28T01:51:38.772Z,70.36
2023-01-28T01:54:07.818Z,70.58
2023-01-28T01:56:43.132Z,71.04
2023-01-28T01:59:15.788Z,70.34
2023-01-28T02:01:45.785Z,70.31
2023-01-28T02:04:20.479Z,70.45
2023-01-28T02:06:50.456Z,70.21
2023-01-28T02:09:29.519Z,70.53
2023-01-28T02:12:02.379Z,71.08
2023-01-28T02:14:34.807Z,71.04
2023-01-28T02:17:03.785Z,71.45
2023-01-28T02:19:39.298Z,71.45
2023-01-28T02:22:34.160Z,72.39
2023-01-28T02:25:44.216Z,72.36
2023-01-28T02:28:25.291Z,72.37
2023-01-28T02:30:58.887Z,72.09
2023-01-28T02:33:36.041Z,71.66
2023-01-28T02:36:13.608Z,71.26
2023-01-28T02:38:47.512Z,71.27
2023-01-28T02:41:22.955Z,71.80
2023-01-28T02:43:52.552Z,72.30
2023-01-28T02:46:52.135Z,72.18
2023-01-28T02:49:24.430Z,72.12
2023-01-28T02:52:17.406Z,72.22
2023-01-28T02:54:55.177Z,71.94
2023-01-28T02:57:36.038Z,71.33
2023-01-28T03:00:13.332Z,71.45
2023-01-28T03:02:48.559Z,71.48
2023-01-28T03:05:22.468Z,71.45
2023-01-28T03:07:51.928Z,71.82
2023-01-28T03:10:24.895Z,71.36
2023-01-28T03:13:13.667Z,71.95
2023-01-28T03:16:05.131Z,71.29
2023-01-28T03:18:56.278Z,71.12
2023-01-28T03:21:47.707Z,72.91
2023-01-28T03:24:40.044Z,72.39
2023-01-28T03:27:33.119Z,72.23
2023-01-28T03:30:30.493Z,72.23
2023-01-28T03:33:18.725Z,72.35
2023-01-28T03:36:06.032Z,72.66
2023-01-28T03:38:42.084Z,71.94
2023-01-28T03:41:13.154Z,72.31
2023-01-28T03:43:42.873Z,72.37
2023-01-28T03:46:11.258Z,72.27
2023-01-28T03:48:40.961Z,71.83
2023-01-28T03:51:11.019Z,71.62
2023-01-28T03:53:39.500Z,71.26
2023-01-28T03:56:08.953Z,70.58
2023-01-28T03:58:53.800Z,70.96
2023-01-28T04:01:22.900Z,70.63
2023-01-28T04:03:52.701Z,70.87
2023-01-28T04:06:26.579Z,70.29
2023-01-28T04:09:06.093Z,70.43
2023-01-28T04:11:55.813Z,70.87
2023-01-28T04:14:32.064Z,70.52
2023-01-28T04:17:10.809Z,70.88
2023-01-28T04:19:41.133Z,71.21
2023-01-28T04:22:12.765Z,72.13
2023-01-28T04:24:42.783Z,72.15
2023-01-28T04:27:11.874Z,72.29
2023-01-28T04:29:39.939Z,72.52
2023-01-28T04:32:33.980Z,72.14
2023-01-28T04:35:08.665Z,72.13
2023-01-28T04:38:01.341Z,72.16
2023-01-28T04:40:52.957Z,72.82
2023-01-28T04:43:29.692Z,72.51
2023-01-28T04:46:20.797Z,72.17
2023-01-28T04:49:11.147Z,71.83
2023-01-28T04:51:51.048Z,71.91
2023-01-28T04:54:32.529Z,71.09
2023-01-28T04:57:03.291Z,71.23
2023-01-28T04:59:32.130Z,71.26
2023-01-28T05:02:00.446Z,70.76
2023-01-28T05:04:28.645Z,71.27
2023-01-28T05:06:58.577Z,70.94
2023-01-28T05:09:32.249Z,70.76
2023-01-28T05:12:00.461Z,70.96
2023-01-28T05:14:31.680Z,71.53
2023-01-28T05:17:07.710Z,71.43
2023-01-28T05:19:36.600Z,71.49
2023-01-28T05:22:08.198Z,71.37
2023-01-28T05:24:43.591Z,71.64
2023-01-28T05:27:11.757Z,71.29
2023-01-28T05:29:39.987Z,70.54
2023-01-28T05:32:08.103Z,70.61
2023-01-28T05:34:36.505Z,70.71
2023-01-28T05:37:12.166Z,70.27
2023-01-28T05:39:40.801Z,70.21
2023-01-28T05:42:09.379Z,70.76
2023-01-28T05:44:43.049Z,70.44
2023-01-28T05:47:17.813Z,70.68
2023-01-28T05:49:46.535Z,70.82
2023-01-28T05:52:34.506Z,70.76
2023-01-28T05:55:03.172Z,70.41
2023-01-28T05:57:31.310Z,70.36
2023-01-28T05:59:59.391Z,70.02
2023-01-28T06:02:28.178Z,70.07
2023-01-28T06:04:58.864Z,70.00
2023-01-28T06:07:27.004Z,70.84
2023-01-28T06:09:56.624Z,70.48
2023-01-28T06:12:24.864Z,69.92
2023-01-28T06:15:22.043Z,69.87
2023-01-28T06:18:01.016Z,70.05
2023-01-28T06:20:33.024Z,69.99
2023-01-28T06:23:02.063Z,70.12
2023-01-28T06:25:31.944Z,70.03
2023-01-28T06:28:04.788Z,69.56
2023-01-28T06:30:32.913Z,69.60
2023-01-28T06:33:01.046Z,69.17
2023-01-28T06:35:29.170Z,68.93
2023-01-28T06:37:57.477Z,69.11
2023-01-28T06:40:26.161Z,69.55
2023-01-28T06:42:55.612Z,69.96
2023-01-28T06:45:23.768Z,70.41
2023-01-28T06:47:51.908Z,71.16
2023-01-28T06:50:20.196Z,70.55
2023-01-28T06:52:48.370Z,71.14
2023-01-28T06:55:16.504Z,72.09
2023-01-28T06:57:45.638Z,70.72
2023-01-28T07:00:16.993Z,70.87
2023-01-28T07:02:45.428Z,70.80
2023-01-28T07:05:13.488Z,71.02
2023-01-28T07:07:42.091Z,71.11
2023-01-28T07:10:12.020Z,70.58
2023-01-28T07:12:40.668Z,71.37
2023-01-28T07:15:10.999Z,70.57
2023-01-28T07:17:42.489Z,70.02
2023-01-28T07:20:13.590Z,69.91
2023-01-28T07:22:43.587Z,70.51
2023-01-28T07:25:13.236Z,70.16
2023-01-28T07:27:41.385Z,69.71
2023-01-28T07:30:10.902Z,69.54
2023-01-28T07:32:39.037Z,69.28
2023-01-28T07:35:09.708Z,69.53
2023-01-28T07:37:37.897Z,69.62
2023-01-28T07:40:07.359Z,69.65
2023-01-28T07:42:35.415Z,69.74
2023-01-28T07:45:08.253Z,69.31
2023-01-28T07:47:36.370Z,68.70
2023-01-28T07:50:04.743Z,69.68
2023-01-28T07:52:38.874Z,69.33
2023-01-28T07:55:07.460Z,68.40
2023-01-28T07:57:35.549Z,67.37
2023-01-28T08:00:03.651Z,66.67
2023-01-28T08:02:40.144Z,66.28
2023-01-28T08:05:09.054Z,65.83
2023-01-28T08:07:38.721Z,65.73
2023-01-28T08:10:08.141Z,66.29
2023-01-28T08:12:36.423Z,65.57
2023-01-28T08:15:05.558Z,65.55
2023-01-28T08:17:33.752Z,65.95
2023-01-28T08:20:01.976Z,65.54
2023-01-28T08:22:30.140Z,65.20
2023-01-28T08:24:59.698Z,64.87
2023-01-28T08:27:27.872Z,65.68
2023-01-28T08:29:55.959Z,66.02
2023-01-28T08:32:24.054Z,65.88
2023-01-28T08:34:52.158Z,65.89
2023-01-28T08:37:20.272Z,66.34
2023-01-28T08:39:48.373Z,65.31
2023-01-28T08:42:18.162Z,65.92
2023-01-28T08:44:46.328Z,66.58
2023-01-28T08:47:14.483Z,66.84
2023-01-28T08:49:42.679Z,66.74
2023-01-28T08:52:11.171Z,66.79
2023-01-28T08:54:39.362Z,66.49
2023-01-28T08:57:07.438Z,66.23
2023-01-28T08:59:40.803Z,65.99
2023-01-28T09:02:22.014Z,66.73
2023-01-28T09:04:57.466Z,66.60
2023-01-28T09:07:25.620Z,67.24
2023-01-28T09:09:53.725Z,66.83
2023-01-28T09:12:21.788Z,66.28
2023-01-28T09:14:52.321Z,66.50
2023-01-28T09:17:20.879Z,66.36
2023-01-28T09:19:48.980Z,66.38
2023-01-28T09:22:17.374Z,66.72
2023-01-28T09:24:45.662Z,67.16
2023-01-28T09:27:13.723Z,67.05
2023-01-28T09:29:41.831Z,66.20
2023-01-28T09:32:11.463Z,66.34
2023-01-28T09:34:39.667Z,66.50
2023-01-28T09:37:07.789Z,66.43
2023-01-28T09:39:35.912Z,65.40
2023-01-28T09:42:23.079Z,66.29
2023-01-28T09:45:02.617Z,65.77
2023-01-28T09:47:35.769Z,65.74
2023-01-28T09:50:08.156Z,65.28
2023-01-28T09:52:40.454Z,65.27
2023-01-28T09:55:18.272Z,65.08
2023-01-28T09:57:51.516Z,64.99
2023-01-28T10:00:23.780Z,65.21
2023-01-28T10:03:33.539Z,65.02
2023-01-28T10:06:18.739Z,64.12
2023-01-28T10:09:23.464Z,64.77
2023-01-28T10:12:04.447Z,64.76
2023-01-28T10:14:46.062Z,64.53
2023-01-28T10:17:19.151Z,64.45
2023-01-28T10:19:51.346Z,64.34
2023-01-28T10:22:26.011Z,64.67
2023-01-28T10:25:01.952Z,63.98
2023-01-28T10:27:32.485Z,63.49
2023-01-28T10:30:02.066Z,63.67
2023-01-28T10:32:34.223Z,63.83
2023-01-28T10:35:03.683Z,63.72
2023-01-28T10:37:36.812Z,63.24
2023-01-28T10:40:06.233Z,64.47
2023-01-28T10:42:36.551Z,64.60
2023-01-28T10:45:15.081Z,65.11
2023-01-28T10:47:48.296Z,67.66
2023-01-28T10:50:18.930Z,65.94
2023-01-28T10:52:59.704Z,66.37
2023-01-28T10:55:31.555Z,67.34
2023-01-28T10:57:59.881Z,67.33
2023-01-28T11:00:31.664Z,67.42
2023-01-28T11:03:00.804Z,67.02
2023-01-28T11:05:30.706Z,65.91
2023-01-28T11:08:14.215Z,65.56
2023-01-28T11:10:43.167Z,65.44
2023-01-28T11:13:17.810Z,66.75
2023-01-28T11:15:50.852Z,68.01
2023-01-28T11:18:22.847Z,68.59
2023-01-28T11:20:54.663Z,66.40
2023-01-28T11:23:27.500Z,65.94
2023-01-28T11:26:05.567Z,67.84
2023-01-28T11:28:34.875Z,67.13
2023-01-28T11:31:04.691Z,67.80
2023-01-28T11:33:37.775Z,67.89
2023-01-28T11:36:09.056Z,66.77
2023-01-28T11:38:50.002Z,66.19
2023-01-28T11:41:18.385Z,66.05
2023-01-28T11:43:46.967Z,66.08
2023-01-28T11:46:37.383Z,66.49
2023-01-28T11:49:10.959Z,66.10
2023-01-28T11:51:44.311Z,68.21
2023-01-28T11:54:29.213Z,70.78
2023-01-28T11:57:17.748Z,69.45
2023-01-28T11:59:57.853Z,68.09
2023-01-28T12:02:47.584Z,68.03
2023-01-28T12:05:33.062Z,67.87
2023-01-28T12:08:10.193Z,71.40
2023-01-28T12:10:49.159Z,70.97
2023-01-28T12:13:42.443Z,71.05
2023-01-28T12:16:47.645Z,70.42
2023-01-28T12:19:38.655Z,68.40
2023-01-28T12:22:40.231Z,68.00
2023-01-28T12:25:23.924Z,68.03
2023-01-28T12:28:03.034Z,67.49
2023-01-28T12:30:44.716Z,66.20
2023-01-28T12:33:35.801Z,65.58
2023-01-28T12:36:19.398Z,65.37
2023-01-28T12:38:59.216Z,65.63
2023-01-28T12:41:32.368Z,65.67
2023-01-28T12:44:06.854Z,65.29
2023-01-28T12:46:43.655Z,64.50
2023-01-28T12:49:19.298Z,64.28
2023-01-28T12:52:02.676Z,64.11
2023-01-28T12:54:37.530Z,64.04
2023-01-28T12:57:07.643Z,64.24
2023-01-28T12:59:43.537Z,66.08
2023-01-28T13:02:22.840Z,64.23
2023-01-28T13:04:57.955Z,64.35
2023-01-28T13:07:30.395Z,63.54
2023-01-28T13:10:04.912Z,63.59
2023-01-28T13:12:34.143Z,63.12
2023-01-28T13:15:04.162Z,62.62
2023-01-28T13:17:33.603Z,62.80
2023-01-28T13:20:02.085Z,62.83
2023-01-28T13:22:33.724Z,62.58
2023-01-28T13:25:20.863Z,62.55
2023-01-28T13:27:57.994Z,62.83
2023-01-28T13:30:31.075Z,62.50
2023-01-28T13:33:01.769Z,62.61
2023-01-28T13:35:34.389Z,62.07
2023-01-28T13:38:10.240Z,61.78
2023-01-28T13:40:41.792Z,62.51
2023-01-28T13:43:37.350Z,62.18
2023-01-28T13:46:09.191Z,62.68
2023-01-28T13:48:43.474Z,63.49
2023-01-28T13:51:19.686Z,63.14
2023-01-28T13:53:55.263Z,63.03
2023-01-28T13:56:27.506Z,63.28
2023-01-28T13:59:18.530Z,63.43
2023-01-28T14:02:20.311Z,63.11
2023-01-28T14:05:20.922Z,64.21
2023-01-28T14:08:10.902Z,64.38
2023-01-28T14:10:53.364Z,64.06
2023-01-28T14:13:46.124Z,63.32
2023-01-28T14:16:26.157Z,63.27
2023-01-28T14:19:03.178Z,63.16
2023-01-28T14:21:35.435Z,64.70
2023-01-28T14:24:03.841Z,67.01
2023-01-28T14:26:42.241Z,71.27
2023-01-28T14:29:23.924Z,69.62
2023-01-28T14:31:53.450Z,69.35
2023-01-28T14:34:29.831Z,72.25
2023-01-28T14:37:00.103Z,73.33
2023-01-28T14:39:30.290Z,73.43
2023-01-28T14:42:01.609Z,73.57
2023-01-28T14:44:33.599Z,71.81
2023-01-28T14:47:27.721Z,73.69
2023-01-28T14:50:12.083Z,74.62
2023-01-28T14:53:00.120Z,72.83
2023-01-28T14:55:37.838Z,73.87
2023-01-28T14:58:11.677Z,74.84
2023-01-28T15:00:39.932Z,75.64
2023-01-28T15:03:24.958Z,75.40
2023-01-28T15:06:05.586Z,74.82
2023-01-28T15:08:33.875Z,75.66
2023-01-28T15:11:03.754Z,76.79
2023-01-28T15:13:37.222Z,76.14
2023-01-28T15:16:07.030Z,75.72
2023-01-28T15:18:37.515Z,76.27
2023-01-28T15:21:07.255Z,75.39
2023-01-28T15:23:38.035Z,75.14
2023-01-28T15:26:07.517Z,74.25
2023-01-28T15:28:38.783Z,76.23
2023-01-28T15:31:08.638Z,77.79
2023-01-28T15:33:36.831Z,78.19
2023-01-28T15:36:07.237Z,77.94
2023-01-28T15:38:35.372Z,77.40
2023-01-28T15:41:06.521Z,77.95
2023-01-28T15:43:37.275Z,78.62
2023-01-28T15:46:12.188Z,78.09
2023-01-28T15:48:44.182Z,77.38
2023-01-28T15:51:21.292Z,78.21
2023-01-28T15:53:53.145Z,78.91
2023-01-28T15:56:28.369Z,79.68
2023-01-28T15:58:57.291Z,80.21
2023-01-28T16:01:25.646Z,78.83
2023-01-28T16:04:04.979Z,78.12
2023-01-28T16:06:38.228Z,77.80
2023-01-28T16:09:08.778Z,78.12
2023-01-28T16:11:44.798Z,79.87
2023-01-28T16:14:27.944Z,80.84
2023-01-28T16:16:57.695Z,81.66
2023-01-28T16:19:34.762Z,83.33
2023-01-28T16:22:04.466Z,81.90
2023-01-28T16:24:36.362Z,81.20
2023-01-28T16:27:08.116Z,82.59
2023-01-28T16:29:37.153Z,81.80
2023-01-28T16:32:05.896Z,81.15
2023-01-28T16:34:33.996Z,81.75
2023-01-28T16:37:02.325Z,80.24
2023-01-28T16:39:31.793Z,80.71
2023-01-28T16:42:00.414Z,80.64
2023-01-28T16:44:28.645Z,80.11
2023-01-28T16:46:56.777Z,80.83
2023-01-28T16:49:24.900Z,80.43
2023-01-28T16:51:54.126Z,80.93
2023-01-28T16:54:22.398Z,80.65
2023-01-28T16:56:52.055Z,80.81
2023-01-28T16:59:20.135Z,81.29
2023-01-28T17:01:48.662Z,79.83
2023-01-28T17:04:17.179Z,78.84
2023-01-28T17:06:46.377Z,79.13
2023-01-28T17:09:15.797Z,78.84
2023-01-28T17:11:44.225Z,79.03
2023-01-28T17:14:13.684Z,77.78
2023-01-28T17:16:41.931Z,77.95
2023-01-28T17:19:10.147Z,78.12
2023-01-28T17:21:38.351Z,78.14
2023-01-28T17:24:07.203Z,78.21
2023-01-28T17:26:36.742Z,78.67
2023-01-28T17:29:06.569Z,78.27
2023-01-28T17:31:36.651Z,78.08
2023-01-28T17:34:07.097Z,78.66
2023-01-28T17:36:35.532Z,79.34
2023-01-28T17:39:03.966Z,78.87
2023-01-28T17:41:32.104Z,79.74
2023-01-28T17:44:00.150Z,80.34
2023-01-28T17:46:28.514Z,80.02
2023-01-28T17:48:57.986Z,81.13
2023-01-28T17:51:26.072Z,80.99
2023-01-28T17:53:54.781Z,82.04
2023-01-28T17:56:25.907Z,81.68
2023-01-28T17:58:55.506Z,81.79
2023-01-28T18:01:25.515Z,82.65
2023-01-28T18:03:54.080Z,82.47
2023-01-28T18:06:23.615Z,83.36
2023-01-28T18:08:51.908Z,84.79
2023-01-28T18:11:21.020Z,85.29
2023-01-28T18:13:49.439Z,86.19
2023-01-28T18:16:19.559Z,87.00
2023-01-28T18:18:49.298Z,88.27
2023-01-28T18:21:34.730Z,87.96
2023-01-28T18:24:09.804Z,87.82
2023-01-28T18:26:38.129Z,88.45
2023-01-28T18:29:06.171Z,88.44
2023-01-28T18:31:34.343Z,88.76
2023-01-28T18:34:03.306Z,88.92
2023-01-28T18:36:32.852Z,89.81
2023-01-28T18:39:00.919Z,89.43
2023-01-28T18:41:29.064Z,89.57
2023-01-28T18:43:57.104Z,89.90
2023-01-28T18:46:25.241Z,89.02
2023-01-28T18:48:53.353Z,88.60
2023-01-28T18:51:30.142Z,88.16
2023-01-28T18:54:02.044Z,88.25
2023-01-28T18:56:31.081Z,87.93
2023-01-28T18:59:00.379Z,87.08
2023-01-28T19:01:29.259Z,87.51
2023-01-28T19:03:58.772Z,87.04
2023-01-28T19:06:27.947Z,85.97
2023-01-28T19:08:57.611Z,85.09
2023-01-28T19:11:29.431Z,85.02
2023-01-28T19:13:57.605Z,85.77
2023-01-28T19:16:26.213Z,85.47
2023-01-28T19:18:56.098Z,84.96
2023-01-28T19:21:25.096Z,83.93
2023-01-28T19:23:57.333Z,85.05
2023-01-28T19:26:30.658Z,84.19
2023-01-28T19:28:59.487Z,84.50
2023-01-28T19:31:28.831Z,84.80
2023-01-28T19:33:58.422Z,84.74
2023-01-28T19:36:29.249Z,83.90
2023-01-28T19:38:59.525Z,84.02
2023-01-28T19:41:29.825Z,84.79
2023-01-28T19:43:58.599Z,84.69
2023-01-28T19:46:27.486Z,84.32
2023-01-28T19:48:56.337Z,84.26
2023-01-28T19:51:25.097Z,84.72
2023-01-28T19:53:54.485Z,86.06
2023-01-28T19:56:24.601Z,85.40
2023-01-28T19:58:55.721Z,84.75
2023-01-28T20:01:28.640Z,83.71
2023-01-28T20:04:00.562Z,85.07
2023-01-28T20:06:30.922Z,84.77
2023-01-28T20:09:01.028Z,84.01
2023-01-28T20:11:29.721Z,83.86
2023-01-28T20:13:59.911Z,82.95
2023-01-28T20:16:29.686Z,82.08
2023-01-28T20:18:59.730Z,84.03
2023-01-28T20:21:29.710Z,83.45
2023-01-28T20:23:59.446Z,82.26
2023-01-28T20:26:31.328Z,82.78
2023-01-28T20:29:02.873Z,82.08
2023-01-28T20:31:31.471Z,82.36
2023-01-28T20:33:59.707Z,82.11
2023-01-28T20:36:28.132Z,81.18
2023-01-28T20:38:56.228Z,81.18
2023-01-28T20:41:26.734Z,80.33
2023-01-28T20:43:55.841Z,79.26
2023-01-28T20:46:28.649Z,81.71
2023-01-28T20:48:58.178Z,81.09
2023-01-28T20:51:28.490Z,79.49
2023-01-28T20:53:56.878Z,80.63
2023-01-28T20:56:26.839Z,82.21
2023-01-28T20:58:56.800Z,81.64
2023-01-28T21:01:28.364Z,80.99
2023-01-28T21:03:56.897Z,78.86
2023-01-28T21:06:25.589Z,78.75
2023-01-28T21:08:54.208Z,79.50
2023-01-28T21:11:23.144Z,78.93
2023-01-28T21:13:51.667Z,78.45
2023-01-28T21:16:20.030Z,77.35
2023-01-28T21:18:50.440Z,77.25
2023-01-28T21:21:20.847Z,77.32
2023-01-28T21:23:48.983Z,76.63
2023-01-28T21:26:17.122Z,76.09
2023-01-28T21:28:45.892Z,76.03
2023-01-28T21:31:17.453Z,76.01
2023-01-28T21:33:51.192Z,75.63
2023-01-28T21:36:20.380Z,75.17
2023-01-28T21:38:52.366Z,74.73
2023-01-28T21:41:20.639Z,74.32
2023-01-28T21:43:52.243Z,74.27
2023-01-28T21:46:21.201Z,74.23
2023-01-28T21:48:54.148Z,74.18
2023-01-28T21:51:39.537Z,74.53
2023-01-28T21:54:10.859Z,74.43
2023-01-28T21:56:39.072Z,74.66
2023-01-28T21:59:24.750Z,74.50
2023-01-28T22:01:52.935Z,74.38
2023-01-28T22:04:23.265Z,74.14
2023-01-28T22:06:53.338Z,74.07
2023-01-28T22:09:21.466Z,74.72
2023-01-28T22:11:49.658Z,75.41
2023-01-28T22:14:18.254Z,76.74
2023-01-28T22:16:46.950Z,78.90
2023-01-28T22:19:15.985Z,81.10
2023-01-28T22:21:47.132Z,80.95
2023-01-28T22:24:17.541Z,81.80
2023-01-28T22:26:47.510Z,82.32
2023-01-28T22:29:17.228Z,81.45
2023-01-28T22:31:46.636Z,80.38
2023-01-28T22:34:14.846Z,80.55
2023-01-28T22:36:42.953Z,81.26
2023-01-28T22:39:16.111Z,81.70
2023-01-28T22:41:45.383Z,81.43
2023-01-28T22:44:13.668Z,83.64
2023-01-28T22:46:41.864Z,83.99
2023-01-28T22:49:11.907Z,83.76
2023-01-28T22:51:40.048Z,84.92
2023-01-28T22:54:09.132Z,84.54
2023-01-28T22:56:38.725Z,83.44
2023-01-28T22:59:07.775Z,83.99
2023-01-28T23:01:36.871Z,84.46
2023-01-28T23:04:05.157Z,83.60
2023-01-28T23:06:33.805Z,85.41
2023-01-28T23:09:01.845Z,83.79
2023-01-28T23:11:30.009Z,83.42
2023-01-28T23:14:19.385Z,84.46
2023-01-28T23:17:05.732Z,83.53
2023-01-28T23:19:51.163Z,83.57
2023-01-28T23:22:41.053Z,82.74
2023-01-28T23:25:10.935Z,83.92
2023-01-28T23:27:39.151Z,85.38
2023-01-28T23:30:10.512Z,85.37
2023-01-28T23:32:40.541Z,84.34
2023-01-28T23:35:09.023Z,85.23
2023-01-28T23:37:37.308Z,84.74
2023-01-28T23:40:06.497Z,84.32
2023-01-28T23:42:34.675Z,83.58
2023-01-28T23:45:02.754Z,84.03
2023-01-28T23:47:32.467Z,84.33
2023-01-28T23:50:00.600Z,82.18
2023-01-28T23:52:28.809Z,83.75
2023-01-28T23:54:56.912Z,83.56
2023-01-28T23:57:24.974Z,81.41
2023-01-28T23:59:53.122Z,81.18
